createdAt,value
2019-02-25T00:00:12.665Z,62.14
2019-02-25T00:02:41.291Z,62.06
2019-02-25T00:05:10.291Z,62.09
2019-02-25T00:10:17.476Z,62.30
2019-02-25T00:12:46.094Z,62.34
2019-02-25T00:15:14.822Z,62.50
2019-02-25T00:17:43.450Z,62.57
2019-02-25T00:20:12.092Z,62.94
2019-02-25T00:22:40.711Z,62.88
2019-02-25T00:25:12.335Z,62.76
2019-02-25T00:27:40.956Z,62.38
2019-02-25T00:30:09.590Z,62.61
2019-02-25T00:32:38.220Z,62.62
2019-02-25T00:35:06.844Z,62.80
2019-02-25T00:37:35.477Z,63.05
2019-02-25T00:40:04.501Z,63.01
2019-02-25T00:42:33.129Z,62.84
2019-02-25T00:45:01.792Z,62.94
2019-02-25T00:47:30.729Z,63.09
2019-02-25T00:49:59.365Z,63.12
2019-02-25T00:52:28.276Z,63.17
2019-02-25T00:54:56.899Z,63.07
2019-02-25T01:02:42.734Z,62.72
2019-02-25T01:05:11.352Z,62.86
2019-02-25T01:07:40.249Z,63.06
2019-02-25T01:10:08.862Z,63.11
2019-02-25T01:15:16.377Z,63.15
2019-02-25T01:17:45.018Z,63.14
2019-02-25T01:20:16.614Z,63.05
2019-02-25T01:25:24.069Z,62.84
2019-02-25T01:27:52.715Z,62.77
2019-02-25T01:30:21.337Z,62.85
2019-02-25T01:32:49.986Z,62.70
2019-02-25T01:37:57.201Z,63.18
2019-02-25T01:40:25.836Z,63.36
2019-02-25T01:42:54.840Z,63.39
2019-02-25T01:45:23.783Z,63.04
2019-02-25T01:47:52.456Z,62.86
2019-02-25T01:50:21.350Z,62.97
2019-02-25T01:52:49.982Z,62.89
2019-02-25T01:55:18.599Z,63.16
2019-02-25T01:57:47.234Z,63.49
2019-02-25T02:00:18.990Z,63.56
2019-02-25T02:02:47.952Z,63.29
2019-02-25T02:05:16.558Z,63.15
2019-02-25T02:07:45.512Z,62.91
2019-02-25T02:10:14.154Z,63.06
2019-02-25T02:12:42.769Z,63.14
2019-02-25T02:17:56.050Z,63.10
2019-02-25T02:20:24.687Z,63.12
2019-02-25T02:22:53.314Z,63.49
2019-02-25T02:25:21.927Z,63.24
2019-02-25T02:27:50.561Z,63.24
2019-02-25T02:30:22.155Z,63.15
2019-02-25T02:32:50.795Z,63.25
2019-02-25T02:35:19.786Z,63.39
2019-02-25T02:37:48.701Z,63.51
2019-02-25T02:40:17.669Z,63.52
2019-02-25T02:45:30.662Z,63.52
2019-02-25T02:47:59.291Z,63.72
2019-02-25T02:50:27.903Z,63.77
2019-02-25T02:52:56.527Z,63.64
2019-02-25T02:55:25.142Z,63.41
2019-02-25T02:57:53.743Z,63.37
2019-02-25T03:00:22.693Z,63.49
2019-02-25T03:02:51.346Z,63.63
2019-02-25T03:05:19.968Z,63.79
2019-02-25T03:07:48.588Z,63.60
2019-02-25T03:10:17.203Z,63.41
2019-02-25T03:12:45.842Z,63.48
2019-02-25T03:15:14.474Z,63.56
2019-02-25T03:17:43.107Z,63.91
2019-02-25T03:20:12.070Z,63.93
2019-02-25T03:22:40.699Z,63.86
2019-02-25T03:25:15.585Z,63.60
2019-02-25T03:27:44.592Z,63.59
2019-02-25T03:32:52.112Z,63.90
2019-02-25T03:35:20.700Z,63.91
2019-02-25T03:37:49.315Z,63.90
2019-02-25T03:40:21.093Z,64.25
2019-02-25T03:42:50.109Z,64.34
2019-02-25T03:45:18.723Z,64.29
2019-02-25T03:47:47.350Z,64.01
2019-02-25T03:50:15.958Z,64.20
2019-02-25T03:52:44.605Z,64.45
2019-02-25T03:55:16.258Z,64.42
2019-02-25T03:57:45.176Z,64.45
2019-02-25T04:00:14.051Z,64.51
2019-02-25T04:02:42.687Z,64.47
2019-02-25T04:05:11.301Z,64.38
2019-02-25T04:07:39.930Z,64.58
2019-02-25T04:10:08.547Z,64.76
2019-02-25T04:12:37.190Z,65.18
2019-02-25T04:15:05.808Z,65.36
2019-02-25T04:17:34.527Z,65.33
2019-02-25T04:20:03.142Z,65.14
2019-02-25T04:22:32.100Z,65.14
2019-02-25T04:25:00.985Z,65.00
2019-02-25T04:27:29.615Z,64.99
2019-02-25T04:29:58.221Z,64.87
2019-02-25T04:32:26.866Z,64.82
2019-02-25T04:34:55.475Z,64.82
2019-02-25T04:37:24.109Z,64.71
2019-02-25T04:42:31.257Z,64.72
2019-02-25T04:44:59.882Z,64.67
2019-02-25T04:47:28.873Z,64.71
2019-02-25T04:49:57.766Z,64.87
2019-02-25T04:55:05.273Z,64.87
2019-02-25T04:57:33.909Z,64.92
2019-02-25T05:00:02.848Z,64.93
2019-02-25T05:02:31.474Z,65.25
2019-02-25T05:05:00.332Z,65.33
2019-02-25T05:07:28.985Z,65.17
2019-02-25T05:09:57.879Z,65.25
2019-02-25T05:12:26.506Z,65.32
2019-02-25T05:14:55.457Z,65.53
2019-02-25T05:17:24.042Z,65.41
2019-02-25T05:19:52.660Z,65.45
2019-02-25T05:22:21.280Z,65.61
2019-02-25T05:24:49.965Z,65.46
2019-02-25T05:27:18.874Z,65.44
2019-02-25T05:29:47.510Z,65.47
2019-02-25T05:32:16.471Z,65.39
2019-02-25T05:34:45.081Z,65.31
2019-02-25T05:39:52.693Z,65.59
2019-02-25T05:42:21.270Z,65.63
2019-02-25T05:44:49.905Z,65.64
2019-02-25T05:47:18.790Z,65.74
2019-02-25T05:49:47.461Z,65.74
2019-02-25T05:54:54.563Z,65.74
2019-02-25T05:57:23.166Z,65.66
2019-02-25T05:59:51.793Z,65.58
2019-02-25T06:04:46.935Z,65.47
2019-02-25T06:07:15.570Z,65.83
2019-02-25T06:09:44.166Z,65.83
2019-02-25T06:12:12.778Z,65.62
2019-02-25T06:14:41.392Z,65.66
2019-02-25T06:17:09.993Z,65.74
2019-02-25T06:19:38.622Z,65.88
2019-02-25T06:22:07.256Z,65.81
2019-02-25T06:24:35.886Z,65.80
2019-02-25T06:27:04.509Z,65.76
2019-02-25T06:29:33.143Z,65.71
2019-02-25T06:32:01.737Z,65.74
2019-02-25T06:34:30.369Z,65.75
2019-02-25T06:36:59.344Z,65.53
2019-02-25T06:39:28.218Z,65.57
2019-02-25T06:41:57.211Z,65.56
2019-02-25T06:44:25.839Z,65.59
2019-02-25T06:46:54.457Z,65.68
2019-02-25T06:49:23.086Z,65.89
2019-02-25T06:51:51.687Z,66.18
2019-02-25T06:54:20.321Z,65.91
2019-02-25T06:56:48.948Z,65.92
2019-02-25T06:59:17.897Z,65.95
2019-02-25T07:01:46.511Z,65.90
2019-02-25T07:04:15.140Z,65.81
2019-02-25T07:06:43.751Z,65.78
2019-02-25T07:09:12.376Z,65.67
2019-02-25T07:11:41.321Z,65.83
2019-02-25T07:14:09.938Z,65.98
2019-02-25T07:16:38.552Z,65.94
2019-02-25T07:19:07.149Z,65.88
2019-02-25T07:21:35.782Z,65.84
2019-02-25T07:24:04.402Z,66.06
2019-02-25T07:26:33.035Z,66.68
2019-02-25T07:29:03.455Z,66.45
2019-02-25T07:31:30.250Z,66.25
2019-02-25T07:33:58.868Z,66.36
2019-02-25T07:36:27.483Z,66.27
2019-02-25T07:38:56.105Z,65.93
2019-02-25T07:41:24.727Z,64.83
2019-02-25T07:43:53.326Z,62.30
2019-02-25T07:46:21.965Z,60.19
2019-02-25T07:48:50.580Z,59.58
2019-02-25T07:51:19.191Z,58.65
2019-02-25T07:53:47.802Z,58.08
2019-02-25T07:56:16.802Z,57.00
2019-02-25T07:58:45.418Z,56.99
2019-02-25T08:01:14.374Z,56.58
2019-02-25T08:03:42.988Z,56.54
2019-02-25T08:06:12.075Z,57.55
2019-02-25T08:08:40.256Z,57.75
2019-02-25T08:11:08.887Z,57.51
2019-02-25T08:13:37.798Z,57.19
2019-02-25T08:16:06.441Z,56.93
2019-02-25T08:18:35.049Z,56.58
2019-02-25T08:21:03.952Z,56.05
2019-02-25T08:23:32.932Z,54.79
2019-02-25T08:26:01.592Z,54.22
2019-02-25T08:28:32.551Z,53.92
2019-02-25T08:30:59.153Z,52.90
2019-02-25T08:33:27.754Z,52.51
2019-02-25T08:35:56.398Z,52.46
2019-02-25T08:38:25.344Z,51.76
2019-02-25T08:40:53.988Z,51.83
2019-02-25T08:43:22.595Z,52.23
2019-02-25T08:45:51.225Z,52.28
2019-02-25T08:48:19.842Z,52.41
2019-02-25T08:50:48.466Z,52.08
2019-02-25T08:53:17.082Z,51.62
2019-02-25T08:55:45.718Z,51.04
2019-02-25T08:58:14.327Z,50.00
2019-02-25T09:00:42.947Z,50.29
2019-02-25T09:03:11.565Z,49.97
2019-02-25T09:05:40.206Z,49.06
2019-02-25T09:08:08.839Z,48.90
2019-02-25T09:10:37.456Z,48.27
2019-02-25T09:13:06.087Z,48.69
2019-02-25T09:15:34.996Z,47.57
2019-02-25T09:18:03.511Z,47.46
2019-02-25T09:20:32.144Z,47.05
2019-02-25T09:23:00.760Z,46.07
2019-02-25T09:25:29.403Z,45.41
2019-02-25T09:27:57.994Z,44.90
2019-02-25T09:30:26.650Z,43.76
2019-02-25T09:32:55.568Z,43.27
2019-02-25T09:35:24.181Z,43.27
2019-02-25T09:37:52.824Z,43.24
2019-02-25T09:40:21.523Z,42.69
2019-02-25T09:42:50.182Z,42.69
2019-02-25T09:45:19.099Z,42.71
2019-02-25T09:47:47.761Z,41.73
2019-02-25T09:52:55.597Z,41.50
2019-02-25T09:55:24.226Z,40.43
2019-02-25T09:57:53.159Z,41.78
2019-02-25T10:00:21.794Z,41.27
2019-02-25T10:02:50.445Z,41.44
2019-02-25T10:05:19.078Z,42.64
2019-02-25T10:07:48.106Z,42.14
2019-02-25T10:10:17.091Z,41.80
2019-02-25T10:12:45.742Z,41.44
2019-02-25T10:15:20.426Z,41.74
2019-02-25T10:17:49.072Z,40.85
2019-02-25T10:20:17.730Z,40.22
2019-02-25T10:22:46.366Z,39.72
2019-02-25T10:25:15.282Z,39.91
2019-02-25T10:27:43.929Z,39.96
2019-02-25T10:32:56.853Z,38.40
2019-02-25T10:35:27.066Z,37.09
2019-02-25T10:37:54.110Z,36.14
2019-02-25T10:40:26.383Z,35.16
2019-02-25T10:42:51.658Z,34.93
2019-02-25T10:45:23.344Z,33.15
2019-02-25T10:47:57.654Z,32.70
2019-02-25T10:50:20.597Z,30.94
2019-02-25T10:52:49.580Z,31.62
2019-02-25T10:58:21.004Z,31.76
2019-02-25T11:00:49.622Z,32.51
2019-02-25T11:03:20.015Z,32.33
2019-02-25T11:05:46.853Z,31.98
2019-02-25T11:08:15.483Z,31.71
2019-02-25T11:10:46.172Z,32.24
2019-02-25T11:13:13.378Z,33.22
2019-02-25T11:15:44.006Z,34.23
2019-02-25T11:18:11.005Z,35.62
2019-02-25T11:20:39.619Z,35.27
2019-02-25T11:23:09.980Z,35.86
2019-02-25T11:25:36.891Z,35.99
2019-02-25T11:28:07.598Z,35.55
2019-02-25T11:30:34.530Z,35.17
2019-02-25T11:33:03.482Z,34.52
2019-02-25T11:35:34.123Z,34.77
2019-02-25T11:38:01.771Z,34.34
2019-02-25T11:40:31.262Z,34.57
2019-02-25T11:42:58.680Z,33.64
2019-02-25T11:45:27.314Z,33.83
2019-02-25T11:47:55.949Z,33.95
2019-02-25T11:50:24.573Z,33.75
2019-02-25T11:52:53.199Z,32.77
2019-02-25T11:55:22.030Z,32.44
2019-02-25T11:57:50.421Z,32.91
2019-02-25T12:03:00.681Z,33.13
2019-02-25T12:05:29.296Z,32.64
2019-02-25T12:07:57.906Z,32.90
2019-02-25T12:10:26.514Z,32.95
2019-02-25T12:12:55.151Z,33.46
2019-02-25T12:15:23.750Z,33.78
2019-02-25T12:17:52.692Z,33.28
2019-02-25T12:20:21.312Z,32.69
2019-02-25T12:22:49.945Z,33.37
2019-02-25T12:25:21.260Z,33.15
2019-02-25T12:27:49.880Z,32.75
2019-02-25T12:30:18.508Z,33.18
2019-02-25T12:32:47.452Z,32.97
2019-02-25T12:35:16.072Z,32.88
2019-02-25T12:37:44.701Z,33.37
2019-02-25T12:40:13.610Z,33.17
2019-02-25T12:42:42.246Z,33.04
2019-02-25T12:47:52.413Z,32.41
2019-02-25T12:50:21.020Z,32.97
2019-02-25T12:52:49.641Z,32.02
2019-02-25T12:55:18.272Z,31.92
2019-02-25T12:57:47.202Z,32.31
2019-02-25T13:00:15.816Z,33.08
2019-02-25T13:02:44.446Z,33.47
2019-02-25T13:05:13.089Z,33.46
2019-02-25T13:07:41.702Z,33.90
2019-02-25T13:10:16.329Z,34.00
2019-02-25T13:12:44.962Z,33.90
2019-02-25T13:17:52.488Z,34.13
2019-02-25T13:20:21.435Z,32.87
2019-02-25T13:22:50.438Z,33.50
2019-02-25T13:28:02.106Z,34.13
2019-02-25T13:30:28.687Z,34.05
2019-02-25T13:32:57.321Z,34.42
2019-02-25T13:35:25.949Z,34.93
2019-02-25T13:37:54.589Z,34.95
2019-02-25T13:40:23.499Z,34.38
2019-02-25T13:42:52.600Z,34.78
2019-02-25T13:45:21.225Z,35.05
2019-02-25T13:47:49.871Z,34.52
2019-02-25T13:50:18.850Z,33.54
2019-02-25T13:52:48.411Z,33.81
2019-02-25T13:55:16.124Z,34.28
2019-02-25T13:57:44.757Z,34.07
2019-02-25T14:00:25.436Z,34.03
2019-02-25T14:02:54.081Z,34.38
2019-02-25T14:05:22.697Z,33.72
2019-02-25T14:07:51.330Z,34.31
2019-02-25T14:10:20.301Z,34.85
2019-02-25T14:12:48.942Z,35.14
2019-02-25T14:15:17.568Z,35.55
2019-02-25T14:17:46.205Z,35.81
2019-02-25T14:20:14.823Z,36.30
2019-02-25T14:22:43.443Z,36.24
2019-02-25T14:25:12.683Z,36.51
2019-02-25T14:27:41.019Z,37.19
2019-02-25T14:30:12.643Z,37.41
2019-02-25T14:32:41.260Z,37.44
2019-02-25T14:35:09.887Z,37.91
2019-02-25T14:37:38.795Z,37.66
2019-02-25T14:40:08.666Z,38.09
2019-02-25T14:42:38.476Z,38.31
2019-02-25T14:45:07.233Z,38.21
2019-02-25T14:47:36.902Z,38.61
2019-02-25T14:50:02.773Z,38.63
2019-02-25T14:52:31.862Z,38.79
2019-02-25T14:55:20.295Z,38.74
2019-02-25T14:57:49.263Z,38.66
2019-02-25T15:00:23.469Z,39.33
2019-02-25T15:02:50.384Z,39.16
2019-02-25T15:05:19.427Z,39.01
2019-02-25T15:07:47.062Z,38.39
2019-02-25T15:10:15.427Z,38.54
2019-02-25T15:12:44.330Z,38.58
2019-02-25T15:15:12.968Z,38.22
2019-02-25T15:17:42.422Z,38.55
2019-02-25T15:20:16.386Z,39.07
2019-02-25T15:22:42.513Z,39.78
2019-02-25T15:27:49.622Z,39.90
2019-02-25T15:30:25.616Z,40.10
2019-02-25T15:32:56.950Z,40.48
2019-02-25T15:35:22.107Z,41.02
2019-02-25T15:37:52.877Z,41.20
2019-02-25T15:40:21.062Z,41.53
2019-02-25T15:42:48.604Z,41.84
2019-02-25T15:45:20.667Z,41.56
2019-02-25T15:47:49.439Z,41.63
2019-02-25T15:50:17.924Z,41.99
2019-02-25T15:52:46.564Z,42.06
2019-02-25T15:55:16.920Z,42.24
2019-02-25T15:57:44.103Z,42.71
2019-02-25T16:00:13.094Z,42.39
2019-02-25T16:02:41.698Z,42.45
2019-02-25T16:05:10.348Z,42.74
2019-02-25T16:07:40.193Z,43.00
2019-02-25T16:10:11.996Z,43.33
2019-02-25T16:12:39.717Z,44.12
2019-02-25T16:15:17.494Z,45.41
2019-02-25T16:17:45.841Z,47.19
2019-02-25T16:20:19.556Z,47.62
2019-02-25T16:22:46.115Z,49.06
2019-02-25T16:25:14.751Z,50.07
2019-02-25T16:27:45.035Z,51.28
2019-02-25T16:30:12.262Z,52.09
2019-02-25T16:32:42.168Z,52.61
2019-02-25T16:35:10.234Z,52.84
2019-02-25T16:37:39.212Z,52.82
2019-02-25T16:42:46.755Z,54.89
2019-02-25T16:45:21.371Z,54.76
2019-02-25T16:47:50.335Z,55.23
2019-02-25T16:50:20.930Z,55.25
2019-02-25T16:52:49.193Z,55.50
2019-02-25T16:55:20.151Z,55.77
2019-02-25T16:57:47.906Z,56.50
2019-02-25T17:00:16.520Z,56.69
2019-02-25T17:02:45.151Z,57.01
2019-02-25T17:05:14.099Z,56.92
2019-02-25T17:07:44.312Z,57.23
2019-02-25T17:10:11.354Z,57.77
2019-02-25T17:12:39.960Z,57.90
2019-02-25T17:15:10.136Z,57.71
2019-02-25T17:17:37.551Z,57.80
2019-02-25T17:20:06.192Z,58.34
2019-02-25T17:22:34.800Z,58.70
2019-02-25T17:25:07.682Z,58.94
2019-02-25T17:27:32.426Z,59.13
2019-02-25T17:30:01.353Z,59.59
2019-02-25T17:32:30.238Z,59.58
2019-02-25T17:35:00.384Z,59.57
2019-02-25T17:37:28.780Z,59.90
2019-02-25T17:39:58.453Z,60.00
2019-02-25T17:42:26.437Z,60.07
2019-02-25T17:44:55.607Z,59.97
2019-02-25T17:47:24.282Z,59.92
2019-02-25T17:49:52.256Z,60.11
2019-02-25T17:52:22.458Z,60.25
2019-02-25T17:54:50.128Z,60.88
2019-02-25T17:57:18.749Z,60.94
2019-02-25T18:02:25.921Z,60.98
2019-02-25T18:04:55.349Z,61.26
2019-02-25T18:07:23.195Z,61.20
2019-02-25T18:09:52.174Z,61.44
2019-02-25T18:12:20.796Z,61.51
2019-02-25T18:14:49.405Z,61.60
2019-02-25T18:17:19.347Z,61.87
2019-02-25T18:19:47.884Z,62.27
2019-02-25T18:22:17.246Z,62.17
2019-02-25T18:24:44.202Z,62.52
2019-02-25T18:27:12.824Z,62.47
2019-02-25T18:29:43.794Z,62.47
2019-02-25T18:32:11.813Z,62.60
2019-02-25T18:34:38.773Z,62.71
2019-02-25T18:37:09.308Z,62.77
2019-02-25T18:39:36.690Z,63.14
2019-02-25T18:42:05.326Z,62.94
2019-02-25T18:44:33.931Z,63.08
2019-02-25T18:47:02.583Z,62.95
2019-02-25T18:49:32.666Z,63.14
2019-02-25T18:51:59.869Z,63.24
2019-02-25T18:54:28.785Z,63.46
2019-02-25T18:56:58.919Z,63.73
2019-02-25T18:59:26.364Z,64.33
2019-02-25T19:01:55.011Z,64.03
2019-02-25T19:04:23.650Z,63.94
2019-02-25T19:06:52.273Z,63.97
2019-02-25T19:09:22.763Z,64.19
2019-02-25T19:11:50.847Z,64.29
2019-02-25T19:14:21.680Z,64.40
2019-02-25T19:16:47.143Z,65.25
2019-02-25T19:19:17.125Z,65.55
2019-02-25T19:21:45.664Z,65.40
2019-02-25T19:24:14.312Z,65.22
2019-02-25T19:26:43.019Z,64.86
2019-02-25T19:29:12.496Z,64.75
2019-02-25T19:31:39.855Z,64.71
2019-02-25T19:34:10.439Z,65.05
2019-02-25T19:36:38.939Z,65.13
2019-02-25T19:39:09.369Z,65.88
2019-02-25T19:41:34.457Z,65.26
2019-02-25T19:44:04.125Z,65.13
2019-02-25T19:46:32.045Z,65.31
2019-02-25T19:49:00.977Z,65.25
2019-02-25T19:51:29.949Z,65.64
2019-02-25T19:53:59.796Z,65.99
2019-02-25T19:56:27.195Z,65.96
2019-02-25T19:58:56.605Z,66.18
2019-02-25T20:01:24.446Z,66.30
2019-02-25T20:03:53.374Z,66.31
2019-02-25T20:06:23.610Z,66.40
2019-02-25T20:08:51.005Z,66.41
2019-02-25T20:11:19.239Z,66.50
2019-02-25T20:13:47.855Z,66.51
2019-02-25T20:16:20.105Z,66.63
2019-02-25T20:18:45.387Z,66.71
2019-02-25T20:21:14.375Z,66.89
2019-02-25T20:23:44.898Z,66.89
2019-02-25T20:26:13.466Z,67.09
2019-02-25T20:28:41.259Z,67.46
2019-02-25T20:31:10.109Z,67.09
2019-02-25T20:33:39.167Z,67.14
2019-02-25T20:36:06.865Z,67.22
2019-02-25T20:38:37.265Z,66.92
2019-02-25T20:41:04.423Z,67.15
2019-02-25T20:43:33.065Z,67.65
2019-02-25T20:46:04.064Z,67.65
2019-02-25T20:48:30.443Z,67.46
2019-02-25T20:51:00.311Z,67.74
2019-02-25T20:53:29.537Z,67.74
2019-02-25T20:55:57.175Z,67.69
2019-02-25T20:58:24.931Z,67.76
2019-02-25T21:00:53.575Z,68.06
2019-02-25T21:03:23.170Z,68.02
2019-02-25T21:05:51.193Z,68.30
2019-02-25T21:08:21.390Z,68.30
2019-02-25T21:10:48.804Z,68.76
2019-02-25T21:13:17.462Z,68.49
2019-02-25T21:15:46.084Z,68.67
2019-02-25T21:18:14.731Z,68.67
2019-02-25T21:20:45.056Z,68.61
2019-02-25T21:23:12.593Z,68.53
2019-02-25T21:25:40.944Z,68.49
2019-02-25T21:28:11.298Z,68.62
2019-02-25T21:30:41.153Z,68.40
2019-02-25T21:33:06.823Z,68.51
2019-02-25T21:35:37.396Z,68.89
2019-02-25T21:38:04.066Z,69.35
2019-02-25T21:40:32.701Z,69.06
2019-02-25T21:43:01.349Z,69.32
2019-02-25T21:45:32.365Z,69.37
2019-02-25T21:48:01.592Z,69.38
2019-02-25T21:50:30.716Z,69.24
2019-02-25T21:52:56.042Z,69.26
2019-02-25T21:55:26.211Z,69.39
2019-02-25T21:57:55.026Z,69.08
2019-02-25T22:00:22.555Z,69.11
2019-02-25T22:02:52.668Z,69.04
2019-02-25T22:05:21.197Z,68.93
2019-02-25T22:07:52.328Z,68.76
2019-02-25T22:10:17.386Z,68.96
2019-02-25T22:12:46.008Z,69.06
2019-02-25T22:15:22.096Z,69.24
2019-02-25T22:17:50.652Z,69.20
2019-02-25T22:20:18.943Z,69.26
2019-02-25T22:22:46.117Z,69.24
2019-02-25T22:25:20.654Z,69.12
2019-02-25T22:27:49.301Z,69.10
2019-02-25T22:30:18.235Z,69.24
2019-02-25T22:32:46.864Z,69.53
2019-02-25T22:35:15.806Z,69.51
2019-02-25T22:37:48.991Z,69.52
2019-02-25T22:42:56.248Z,69.59
2019-02-25T22:45:23.039Z,69.48
2019-02-25T22:47:52.023Z,69.68
2019-02-25T22:50:20.648Z,69.82
2019-02-25T22:52:51.275Z,69.84
2019-02-25T22:55:20.282Z,70.21
2019-02-25T22:57:50.879Z,70.14
2019-02-25T23:00:27.286Z,70.05
2019-02-25T23:02:56.806Z,70.05
2019-02-25T23:05:25.518Z,70.01
2019-02-25T23:07:54.690Z,70.12
2019-02-25T23:10:24.001Z,70.10
2019-02-25T23:12:50.665Z,69.98
2019-02-25T23:15:20.543Z,70.27
2019-02-25T23:17:48.214Z,70.53
2019-02-25T23:20:17.107Z,70.37
2019-02-25T23:22:45.752Z,70.07
2019-02-25T23:25:14.372Z,70.26
2019-02-25T23:27:43.008Z,70.52
2019-02-25T23:32:52.328Z,70.70
2019-02-25T23:35:21.279Z,70.71
2019-02-25T23:37:51.439Z,70.70
2019-02-25T23:40:17.873Z,70.76
2019-02-25T23:42:48.892Z,70.74
2019-02-25T23:45:17.864Z,70.81
2019-02-25T23:47:44.095Z,70.88
2019-02-25T23:50:13.676Z,71.14
2019-02-25T23:52:41.341Z,70.88
2019-02-25T23:55:16.519Z,70.69
2019-02-25T23:57:41.483Z,70.49
